createdAt,value
2018-11-13T00:01:59.836Z,49.90
2018-11-13T00:04:27.246Z,49.90
2018-11-13T00:06:54.671Z,49.90
2018-11-13T00:09:22.074Z,49.90
2018-11-13T00:11:49.525Z,49.80
2018-11-13T00:14:16.933Z,49.80
2018-11-13T00:16:44.346Z,49.80
2018-11-13T00:19:11.762Z,49.90
2018-11-13T00:21:39.181Z,49.80
2018-11-13T00:24:06.781Z,49.80
2018-11-13T00:26:34.191Z,49.80
2018-11-13T00:29:01.613Z,49.90
2018-11-13T00:31:29.025Z,49.90
2018-11-13T00:33:56.430Z,50.00
2018-11-13T00:36:23.851Z,50.10
2018-11-13T00:38:51.302Z,50.00
2018-11-13T00:41:18.726Z,50.00
2018-11-13T00:43:46.309Z,50.00
2018-11-13T00:46:13.800Z,50.00
2018-11-13T00:48:41.226Z,50.00
2018-11-13T00:51:08.645Z,50.00
2018-11-13T00:53:36.070Z,50.00
2018-11-13T00:56:03.511Z,49.90
2018-11-13T00:58:30.938Z,49.80
2018-11-13T01:00:58.396Z,49.80
2018-11-13T01:03:25.794Z,49.80
2018-11-13T01:05:53.586Z,49.80
2018-11-13T01:08:20.788Z,49.70
2018-11-13T01:10:48.222Z,49.70
2018-11-13T01:13:15.627Z,49.70
2018-11-13T01:15:43.029Z,49.60
2018-11-13T01:18:10.451Z,49.50
2018-11-13T01:20:37.888Z,49.60
2018-11-13T01:23:05.315Z,49.40
2018-11-13T01:25:32.722Z,49.50
2018-11-13T01:28:00.150Z,49.50
2018-11-13T01:30:27.671Z,49.50
2018-11-13T01:32:55.126Z,49.50
2018-11-13T01:35:22.528Z,49.40
2018-11-13T01:37:49.929Z,49.50
2018-11-13T01:40:24.122Z,49.40
2018-11-13T01:42:51.534Z,49.50
2018-11-13T01:45:19.610Z,49.50
2018-11-13T01:47:47.025Z,49.50
2018-11-13T01:50:14.739Z,49.50
2018-11-13T01:52:42.145Z,49.50
2018-11-13T01:55:11.000Z,49.50
2018-11-13T01:57:38.409Z,49.50
2018-11-13T02:00:10.524Z,49.50
2018-11-13T02:02:37.929Z,49.50
2018-11-13T02:05:05.450Z,49.70
2018-11-13T02:07:32.879Z,50.20
2018-11-13T02:10:00.299Z,49.70
2018-11-13T02:12:27.741Z,49.60
2018-11-13T02:14:55.157Z,50.20
2018-11-13T02:17:22.572Z,49.70
2018-11-13T02:19:50.013Z,49.60
2018-11-13T02:22:17.438Z,49.50
2018-11-13T02:24:44.856Z,49.60
2018-11-13T02:27:12.315Z,49.40
2018-11-13T02:29:39.737Z,49.40
2018-11-13T02:32:07.153Z,49.40
2018-11-13T02:34:36.027Z,49.40
2018-11-13T02:37:03.515Z,49.40
2018-11-13T02:39:30.938Z,49.30
2018-11-13T02:41:58.351Z,49.20
2018-11-13T02:44:25.777Z,49.20
2018-11-13T02:46:53.197Z,49.20
2018-11-13T02:49:20.662Z,49.20
2018-11-13T02:51:48.082Z,49.20
2018-11-13T02:54:15.537Z,49.80
2018-11-13T02:56:42.966Z,49.20
2018-11-13T02:59:10.493Z,49.10
2018-11-13T03:01:37.909Z,49.10
2018-11-13T03:04:05.325Z,49.10
2018-11-13T03:06:32.882Z,49.00
2018-11-13T03:09:00.302Z,49.00
2018-11-13T03:11:27.873Z,49.10
2018-11-13T03:13:55.450Z,49.10
2018-11-13T03:16:22.733Z,49.10
2018-11-13T03:18:50.164Z,49.20
2018-11-13T03:21:17.589Z,49.20
2018-11-13T03:23:45.026Z,49.20
2018-11-13T03:26:12.531Z,49.20
2018-11-13T03:28:39.952Z,49.20
2018-11-13T03:31:07.628Z,49.30
2018-11-13T03:33:34.785Z,49.40
2018-11-13T03:36:02.216Z,49.40
2018-11-13T03:38:29.629Z,49.40
2018-11-13T03:40:57.064Z,49.40
2018-11-13T03:43:24.473Z,49.50
2018-11-13T03:45:51.909Z,49.40
2018-11-13T03:48:19.328Z,49.40
2018-11-13T03:50:46.741Z,49.20
2018-11-13T03:53:14.154Z,49.30
2018-11-13T03:55:41.569Z,49.10
2018-11-13T03:58:09.009Z,49.10
2018-11-13T04:00:36.591Z,49.10
2018-11-13T04:03:04.089Z,49.10
2018-11-13T04:05:31.509Z,49.00
2018-11-13T04:07:59.125Z,49.10
2018-11-13T04:10:26.540Z,49.00
2018-11-13T04:12:53.989Z,49.00
2018-11-13T04:15:22.525Z,49.00
2018-11-13T04:17:49.954Z,49.00
2018-11-13T04:20:18.572Z,48.90
2018-11-13T04:22:46.242Z,48.90
2018-11-13T04:25:13.669Z,48.90
2018-11-13T04:27:41.085Z,48.90
2018-11-13T04:30:09.193Z,48.90
2018-11-13T04:32:36.920Z,49.00
2018-11-13T04:35:05.096Z,48.90
2018-11-13T04:37:32.517Z,49.10
2018-11-13T04:39:59.925Z,49.10
2018-11-13T04:42:27.362Z,49.00
2018-11-13T04:44:54.894Z,49.00
2018-11-13T04:47:22.294Z,49.00
2018-11-13T04:49:49.700Z,49.10
2018-11-13T04:52:17.093Z,49.00
2018-11-13T04:54:44.498Z,49.10
2018-11-13T04:57:11.906Z,49.20
2018-11-13T04:59:39.317Z,49.30
2018-11-13T05:02:06.730Z,49.40
2018-11-13T05:04:34.312Z,49.40
2018-11-13T05:07:01.730Z,49.50
2018-11-13T05:09:29.254Z,49.60
2018-11-13T05:11:56.672Z,49.50
2018-11-13T05:14:24.142Z,49.50
2018-11-13T05:16:51.558Z,49.50
2018-11-13T05:19:18.995Z,49.40
2018-11-13T05:21:46.394Z,49.50
2018-11-13T05:24:13.796Z,49.50
2018-11-13T05:26:41.224Z,49.50
2018-11-13T05:29:08.659Z,49.40
2018-11-13T05:31:36.120Z,49.40
2018-11-13T05:34:03.574Z,49.50
2018-11-13T05:36:30.997Z,49.40
2018-11-13T05:38:58.409Z,49.30
2018-11-13T05:41:25.821Z,49.40
2018-11-13T05:43:53.238Z,49.40
2018-11-13T05:46:20.858Z,49.40
2018-11-13T05:48:48.233Z,49.50
2018-11-13T05:51:15.641Z,49.50
2018-11-13T05:53:43.242Z,49.50
2018-11-13T05:56:11.018Z,49.50
2018-11-13T05:58:38.723Z,49.60
2018-11-13T06:01:06.277Z,49.80
2018-11-13T06:03:33.736Z,49.90
2018-11-13T06:06:01.284Z,50.20
2018-11-13T06:08:28.767Z,50.40
2018-11-13T06:10:56.189Z,50.60
2018-11-13T06:13:23.606Z,50.40
2018-11-13T06:15:51.030Z,50.40
2018-11-13T06:18:18.546Z,50.30
2018-11-13T06:20:45.857Z,50.30
2018-11-13T06:23:13.419Z,50.20
2018-11-13T06:25:40.703Z,50.20
2018-11-13T06:28:08.101Z,50.20
2018-11-13T06:30:35.529Z,50.10
2018-11-13T06:33:02.943Z,50.10
2018-11-13T06:35:30.341Z,50.10
2018-11-13T06:37:57.753Z,50.00
2018-11-13T06:40:25.158Z,49.90
2018-11-13T06:42:52.605Z,50.00
2018-11-13T06:45:21.346Z,49.90
2018-11-13T06:47:49.324Z,49.80
2018-11-13T06:50:16.763Z,49.80
2018-11-13T06:52:44.945Z,49.80
2018-11-13T06:55:44.117Z,49.70
2018-11-13T06:58:11.526Z,49.60
2018-11-13T07:00:39.499Z,49.70
2018-11-13T07:03:06.927Z,49.70
2018-11-13T07:05:34.329Z,49.60
2018-11-13T07:08:01.733Z,49.70
2018-11-13T07:10:29.670Z,49.60
2018-11-13T07:12:57.581Z,49.70
2018-11-13T07:15:26.269Z,49.70
2018-11-13T07:17:55.161Z,49.70
2018-11-13T07:20:23.653Z,49.60
2018-11-13T07:22:51.066Z,49.60
2018-11-13T07:25:18.529Z,49.70
2018-11-13T07:27:46.216Z,49.50
2018-11-13T07:30:14.818Z,49.60
2018-11-13T07:32:44.664Z,49.50
2018-11-13T07:35:13.305Z,49.60
2018-11-13T07:37:43.333Z,49.60
2018-11-13T07:40:10.750Z,49.50
2018-11-13T07:42:38.180Z,49.50
2018-11-13T07:45:07.074Z,49.60
2018-11-13T07:47:34.572Z,49.70
2018-11-13T07:50:01.913Z,49.70
2018-11-13T07:52:29.344Z,49.70
2018-11-13T07:54:56.786Z,50.50
2018-11-13T07:57:24.299Z,49.80
2018-11-13T07:59:51.734Z,49.90
2018-11-13T08:02:19.399Z,50.00
2018-11-13T08:04:46.915Z,50.00
2018-11-13T08:07:14.411Z,50.10
2018-11-13T08:09:42.221Z,50.10
2018-11-13T08:12:09.682Z,50.20
2018-11-13T08:14:37.122Z,50.20
2018-11-13T08:17:04.549Z,50.20
2018-11-13T08:19:31.987Z,50.20
2018-11-13T08:21:59.557Z,50.30
2018-11-13T08:24:26.904Z,50.40
2018-11-13T08:26:54.463Z,50.40
2018-11-13T08:29:21.921Z,50.40
2018-11-13T08:31:49.307Z,50.50
2018-11-13T08:34:16.750Z,50.60
2018-11-13T08:36:44.181Z,50.60
2018-11-13T08:39:12.587Z,50.60
2018-11-13T08:41:39.996Z,50.70
2018-11-13T08:44:08.030Z,50.70
2018-11-13T08:46:35.390Z,50.70
2018-11-13T08:49:02.885Z,50.70
2018-11-13T08:51:30.314Z,50.70
2018-11-13T08:53:57.773Z,50.70
2018-11-13T08:56:25.861Z,50.70
2018-11-13T08:58:53.393Z,50.70
2018-11-13T09:01:20.725Z,50.70
2018-11-13T09:03:48.174Z,50.80
2018-11-13T09:06:15.601Z,50.80
2018-11-13T09:08:43.030Z,50.80
2018-11-13T09:11:10.508Z,50.80
2018-11-13T09:13:37.905Z,50.90
2018-11-13T09:16:05.326Z,50.90
2018-11-13T09:18:32.752Z,50.90
2018-11-13T09:21:00.171Z,50.90
2018-11-13T09:23:27.610Z,50.90
2018-11-13T09:25:55.387Z,50.90
2018-11-13T09:28:22.853Z,51.00
2018-11-13T09:30:50.687Z,51.00
2018-11-13T09:33:17.753Z,51.00
2018-11-13T09:35:45.178Z,51.00
2018-11-13T09:38:12.606Z,51.00
2018-11-13T09:40:40.033Z,51.10
2018-11-13T09:43:07.454Z,51.10
2018-11-13T09:45:35.132Z,51.10
2018-11-13T09:48:02.558Z,51.10
2018-11-13T09:50:29.974Z,51.10
2018-11-13T09:52:57.415Z,51.20
2018-11-13T09:55:24.859Z,51.20
2018-11-13T09:57:52.295Z,51.20
2018-11-13T10:00:22.127Z,51.20
2018-11-13T10:02:51.364Z,51.30
2018-11-13T10:05:19.217Z,51.30
2018-11-13T10:07:46.961Z,51.20
2018-11-13T10:10:14.446Z,51.30
2018-11-13T10:12:41.825Z,51.30
2018-11-13T10:15:10.573Z,51.30
2018-11-13T10:17:38.329Z,51.30
2018-11-13T10:20:05.934Z,51.30
2018-11-13T10:22:33.290Z,51.30
2018-11-13T10:25:00.726Z,51.30
2018-11-13T10:27:28.178Z,51.30
2018-11-13T10:29:55.763Z,51.30
2018-11-13T10:32:23.041Z,51.40
2018-11-13T10:34:50.460Z,51.40
2018-11-13T10:37:17.983Z,51.40
2018-11-13T10:39:45.414Z,51.40
2018-11-13T10:42:12.841Z,51.40
2018-11-13T10:44:40.264Z,51.40
2018-11-13T10:47:07.696Z,51.40
2018-11-13T10:49:35.122Z,51.50
2018-11-13T10:52:02.563Z,51.50
2018-11-13T10:54:29.993Z,51.50
2018-11-13T10:56:57.418Z,51.50
2018-11-13T10:59:24.857Z,51.50
2018-11-13T11:01:57.894Z,51.50
2018-11-13T11:04:30.874Z,51.50
2018-11-13T11:06:58.265Z,51.50
2018-11-13T11:09:25.681Z,51.50
2018-11-13T11:11:53.109Z,51.50
2018-11-13T11:14:20.539Z,51.50
2018-11-13T11:16:47.963Z,51.50
2018-11-13T11:19:15.431Z,51.50
2018-11-13T11:21:42.798Z,51.50
2018-11-13T11:24:10.279Z,51.50
2018-11-13T11:26:37.652Z,51.50
2018-11-13T11:29:05.066Z,51.50
2018-11-13T11:31:32.507Z,51.50
2018-11-13T11:34:00.068Z,51.50
2018-11-13T11:36:27.499Z,51.50
2018-11-13T11:38:55.046Z,51.50
2018-11-13T11:41:22.550Z,51.50
2018-11-13T11:43:49.984Z,51.50
2018-11-13T11:46:17.445Z,51.50
2018-11-13T11:48:44.864Z,51.50
2018-11-13T11:51:12.290Z,51.50
2018-11-13T11:53:39.755Z,51.50
2018-11-13T11:56:07.133Z,51.50
2018-11-13T11:58:34.541Z,51.60
2018-11-13T12:01:01.970Z,51.60
2018-11-13T12:03:29.398Z,51.60
2018-11-13T12:05:56.829Z,51.70
2018-11-13T12:08:24.265Z,51.60
2018-11-13T12:10:51.717Z,51.60
2018-11-13T12:13:19.146Z,51.60
2018-11-13T12:15:46.561Z,51.70
2018-11-13T12:18:13.990Z,51.70
2018-11-13T12:20:41.438Z,51.70
2018-11-13T12:23:08.856Z,52.30
2018-11-13T12:25:36.291Z,52.40
2018-11-13T12:28:03.703Z,51.70
2018-11-13T12:30:31.126Z,51.70
2018-11-13T12:32:58.546Z,51.70
2018-11-13T12:35:25.959Z,51.70
2018-11-13T12:37:53.381Z,51.70
2018-11-13T12:40:22.249Z,51.70
2018-11-13T12:42:50.211Z,51.70
2018-11-13T12:45:17.783Z,51.70
2018-11-13T12:47:45.341Z,51.70
2018-11-13T12:50:13.600Z,51.70
2018-11-13T12:52:41.193Z,51.70
2018-11-13T12:55:09.770Z,51.70
2018-11-13T12:57:37.201Z,51.80
2018-11-13T13:00:06.385Z,51.70
2018-11-13T13:02:33.808Z,51.80
2018-11-13T13:05:01.226Z,51.80
2018-11-13T13:07:28.664Z,51.80
2018-11-13T13:09:56.061Z,51.80
2018-11-13T13:12:23.485Z,51.80
2018-11-13T13:14:50.975Z,51.80
2018-11-13T13:17:18.331Z,51.80
2018-11-13T13:19:45.758Z,52.50
2018-11-13T13:22:13.219Z,51.80
2018-11-13T13:24:40.621Z,51.90
2018-11-13T13:27:08.065Z,52.50
2018-11-13T13:29:35.489Z,51.90
2018-11-13T13:32:02.926Z,51.90
2018-11-13T13:34:30.353Z,51.90
2018-11-13T13:37:01.199Z,51.90
2018-11-13T13:39:30.214Z,51.90
2018-11-13T13:42:00.044Z,51.90
2018-11-13T13:44:29.671Z,51.90
2018-11-13T13:46:57.085Z,51.90
2018-11-13T13:49:24.490Z,51.90
2018-11-13T13:51:51.901Z,51.90
2018-11-13T13:54:19.338Z,51.90
2018-11-13T13:56:46.765Z,51.80
2018-11-13T13:59:14.197Z,51.80
2018-11-13T14:01:41.610Z,51.90
2018-11-13T14:04:09.028Z,51.90
2018-11-13T14:06:36.455Z,51.90
2018-11-13T14:09:05.900Z,51.90
2018-11-13T14:11:33.297Z,51.90
2018-11-13T14:14:00.725Z,51.90
2018-11-13T14:16:28.218Z,52.30
2018-11-13T14:18:55.684Z,51.90
2018-11-13T14:21:23.257Z,51.90
2018-11-13T14:23:50.689Z,52.00
2018-11-13T14:26:18.293Z,51.90
2018-11-13T14:28:45.885Z,52.00
2018-11-13T14:31:13.341Z,52.00
2018-11-13T14:33:40.836Z,52.00
2018-11-13T14:36:08.286Z,51.90
2018-11-13T14:38:36.243Z,52.00
2018-11-13T14:41:03.831Z,52.00
2018-11-13T14:43:31.741Z,52.00
2018-11-13T14:45:59.180Z,52.00
2018-11-13T14:48:26.641Z,52.10
2018-11-13T14:50:54.057Z,52.10
2018-11-13T14:53:21.527Z,52.20
2018-11-13T14:55:48.889Z,52.30
2018-11-13T14:58:16.940Z,52.30
2018-11-13T15:00:44.541Z,52.20
2018-11-13T15:03:13.695Z,52.30
2018-11-13T15:05:41.101Z,52.50
2018-11-13T15:08:09.238Z,52.60
2018-11-13T15:10:44.193Z,52.50
2018-11-13T15:13:11.965Z,52.60
2018-11-13T15:15:39.402Z,52.70
2018-11-13T15:18:06.955Z,52.70
2018-11-13T15:20:34.365Z,52.80
2018-11-13T15:23:01.781Z,52.70
2018-11-13T15:25:29.247Z,52.70
2018-11-13T15:27:56.705Z,52.80
2018-11-13T15:30:25.087Z,52.90
2018-11-13T15:32:54.358Z,52.90
2018-11-13T15:35:21.780Z,52.90
2018-11-13T15:37:49.218Z,53.10
2018-11-13T15:40:18.245Z,53.10
2018-11-13T15:42:45.988Z,53.10
2018-11-13T15:45:14.572Z,53.10
2018-11-13T15:47:42.641Z,53.10
2018-11-13T15:50:12.014Z,53.30
2018-11-13T15:52:39.428Z,53.40
2018-11-13T15:55:07.244Z,53.50
2018-11-13T15:57:34.819Z,53.50
2018-11-13T16:00:03.056Z,53.60
2018-11-13T16:02:30.520Z,53.50
2018-11-13T16:04:57.937Z,53.50
2018-11-13T16:07:25.368Z,53.50
2018-11-13T16:09:52.797Z,53.60
2018-11-13T16:12:26.006Z,53.50
2018-11-13T16:14:53.480Z,53.50
2018-11-13T16:17:20.863Z,53.60
2018-11-13T16:19:48.285Z,53.80
2018-11-13T16:22:15.723Z,53.70
2018-11-13T16:24:43.162Z,53.50
2018-11-13T16:27:10.585Z,53.40
2018-11-13T16:29:38.028Z,53.70
2018-11-13T16:32:05.458Z,53.80
2018-11-13T16:34:33.253Z,53.70
2018-11-13T16:37:00.797Z,53.70
2018-11-13T16:39:28.119Z,54.20
2018-11-13T16:41:55.544Z,53.50
2018-11-13T16:44:22.959Z,53.50
2018-11-13T16:46:50.388Z,53.50
2018-11-13T16:49:17.938Z,53.50
2018-11-13T16:51:45.373Z,53.50
2018-11-13T16:54:12.824Z,53.80
2018-11-13T16:56:45.786Z,53.80
2018-11-13T16:59:13.193Z,53.70
2018-11-13T17:01:40.633Z,53.70
2018-11-13T17:04:08.385Z,53.70
2018-11-13T17:06:35.864Z,53.70
2018-11-13T17:09:03.462Z,53.80
2018-11-13T17:11:30.823Z,53.90
2018-11-13T17:13:58.227Z,54.10
2018-11-13T17:16:25.733Z,54.50
2018-11-13T17:18:53.072Z,54.60
2018-11-13T17:21:20.503Z,54.50
2018-11-13T17:23:47.958Z,54.70
2018-11-13T17:26:15.338Z,54.60
2018-11-13T17:28:43.337Z,54.50
2018-11-13T17:31:10.847Z,54.50
2018-11-13T17:33:38.317Z,54.40
2018-11-13T17:36:05.796Z,54.30
2018-11-13T17:38:33.249Z,54.50
2018-11-13T17:41:00.675Z,54.40
2018-11-13T17:43:28.160Z,54.40
2018-11-13T17:45:55.582Z,54.30
2018-11-13T17:48:23.011Z,54.40
2018-11-13T17:50:50.427Z,54.30
2018-11-13T17:53:17.881Z,54.30
2018-11-13T17:55:45.500Z,54.20
2018-11-13T17:58:13.821Z,54.20
2018-11-13T18:00:42.448Z,54.20
2018-11-13T18:03:10.501Z,54.30
2018-11-13T18:05:39.067Z,54.30
2018-11-13T18:08:07.074Z,54.40
2018-11-13T18:10:35.444Z,55.00
2018-11-13T18:13:02.897Z,54.20
2018-11-13T18:15:30.893Z,54.20
2018-11-13T18:17:58.324Z,54.20
2018-11-13T18:20:27.129Z,54.20
2018-11-13T18:22:54.646Z,54.20
2018-11-13T18:25:22.235Z,54.20
2018-11-13T18:27:50.992Z,54.30
2018-11-13T18:30:22.197Z,54.70
2018-11-13T18:32:50.851Z,54.40
2018-11-13T18:35:21.567Z,54.50
2018-11-13T18:37:49.895Z,54.60
2018-11-13T18:40:18.315Z,54.60
2018-11-13T18:42:46.775Z,54.60
2018-11-13T18:45:17.175Z,54.60
2018-11-13T18:47:44.656Z,54.40
2018-11-13T18:50:20.642Z,54.40
2018-11-13T18:52:48.025Z,54.40
2018-11-13T18:55:16.015Z,54.40
2018-11-13T18:57:43.833Z,54.50
2018-11-13T19:00:12.142Z,54.50
2018-11-13T19:02:39.822Z,54.40
2018-11-13T19:05:07.748Z,54.50
2018-11-13T19:07:35.432Z,54.60
2018-11-13T19:10:03.871Z,54.70
2018-11-13T19:12:31.417Z,54.70
2018-11-13T19:14:59.104Z,54.70
2018-11-13T19:17:26.742Z,54.70
2018-11-13T19:19:54.279Z,54.70
2018-11-13T19:22:21.605Z,54.70
2018-11-13T19:24:49.049Z,54.60
2018-11-13T19:27:16.484Z,54.70
2018-11-13T19:29:43.931Z,54.70
2018-11-13T19:32:11.338Z,54.60
2018-11-13T19:34:38.778Z,54.60
2018-11-13T19:37:06.393Z,54.50
2018-11-13T19:39:33.787Z,54.50
2018-11-13T19:42:01.238Z,54.40
2018-11-13T19:44:28.677Z,54.50
2018-11-13T19:46:56.161Z,54.40
2018-11-13T19:49:23.883Z,54.40
2018-11-13T19:51:50.986Z,54.90
2018-11-13T19:54:18.430Z,54.30
2018-11-13T19:56:45.845Z,54.20
2018-11-13T19:59:13.278Z,54.20
2018-11-13T20:01:40.713Z,54.20
2018-11-13T20:04:08.158Z,54.20
2018-11-13T20:06:35.562Z,54.40
2018-11-13T20:09:04.098Z,54.20
2018-11-13T20:11:31.623Z,54.30
2018-11-13T20:13:59.043Z,54.30
2018-11-13T20:16:26.461Z,54.40
2018-11-13T20:18:53.894Z,54.40
2018-11-13T20:21:21.386Z,54.60
2018-11-13T20:23:48.794Z,54.60
2018-11-13T20:26:16.209Z,54.50
2018-11-13T20:28:43.645Z,54.40
2018-11-13T20:31:11.064Z,54.40
2018-11-13T20:33:38.516Z,54.30
2018-11-13T20:36:05.942Z,54.40
2018-11-13T20:38:33.414Z,54.40
2018-11-13T20:41:00.915Z,54.30
2018-11-13T20:43:28.414Z,54.20
2018-11-13T20:45:55.763Z,54.30
2018-11-13T20:48:23.226Z,54.20
2018-11-13T20:50:50.635Z,54.20
2018-11-13T20:53:18.061Z,54.30
2018-11-13T20:55:45.525Z,54.30
2018-11-13T20:58:12.938Z,54.30
2018-11-13T21:00:40.345Z,54.30
2018-11-13T21:03:08.001Z,54.60
2018-11-13T21:05:35.417Z,54.70
2018-11-13T21:08:02.842Z,54.50
2018-11-13T21:10:30.272Z,54.30
2018-11-13T21:12:57.654Z,54.20
2018-11-13T21:15:25.091Z,54.10
2018-11-13T21:17:52.606Z,54.00
2018-11-13T21:20:20.062Z,53.80
2018-11-13T21:22:47.574Z,53.80
2018-11-13T21:25:24.176Z,53.80
2018-11-13T21:27:53.138Z,53.80
2018-11-13T21:30:21.335Z,53.80
2018-11-13T21:32:49.377Z,53.80
2018-11-13T21:35:16.932Z,53.80
2018-11-13T21:37:45.843Z,53.80
2018-11-13T21:40:17.481Z,53.80
2018-11-13T21:42:45.704Z,53.80
2018-11-13T21:45:13.726Z,53.70
2018-11-13T21:47:41.494Z,53.70
2018-11-13T21:50:09.745Z,54.20
2018-11-13T21:52:37.168Z,53.60
2018-11-13T21:55:04.986Z,53.60
2018-11-13T21:57:32.403Z,53.50
2018-11-13T21:59:59.814Z,53.50
2018-11-13T22:02:27.234Z,53.50
2018-11-13T22:04:54.650Z,53.50
2018-11-13T22:07:22.218Z,53.50
2018-11-13T22:09:49.638Z,53.50
2018-11-13T22:12:17.046Z,53.40
2018-11-13T22:14:44.457Z,53.40
2018-11-13T22:17:11.870Z,53.30
2018-11-13T22:19:39.303Z,53.20
2018-11-13T22:22:06.827Z,53.10
2018-11-13T22:24:34.384Z,53.10
2018-11-13T22:27:01.882Z,53.10
2018-11-13T22:29:29.254Z,53.10
2018-11-13T22:31:56.652Z,53.10
2018-11-13T22:34:24.076Z,53.10
2018-11-13T22:36:51.489Z,53.10
2018-11-13T22:39:18.909Z,53.10
2018-11-13T22:41:46.345Z,53.20
2018-11-13T22:44:13.815Z,53.50
2018-11-13T22:46:41.185Z,53.70
2018-11-13T22:49:09.079Z,53.70
2018-11-13T22:51:36.607Z,53.80
2018-11-13T22:54:04.269Z,53.80
2018-11-13T22:56:31.676Z,53.80
2018-11-13T22:58:59.087Z,53.70
2018-11-13T23:01:26.729Z,53.70
2018-11-13T23:03:54.137Z,53.70
2018-11-13T23:06:21.549Z,53.50
2018-11-13T23:08:48.973Z,53.50
2018-11-13T23:11:16.398Z,53.50
2018-11-13T23:13:43.817Z,53.40
2018-11-13T23:16:11.225Z,53.40
2018-11-13T23:18:38.642Z,53.40
2018-11-13T23:21:06.053Z,53.30
2018-11-13T23:23:33.473Z,53.10
2018-11-13T23:26:00.899Z,53.00
2018-11-13T23:28:28.320Z,53.10
2018-11-13T23:30:55.737Z,53.00
2018-11-13T23:33:23.150Z,53.00
2018-11-13T23:35:50.575Z,52.80
2018-11-13T23:38:17.985Z,52.90
2018-11-13T23:40:45.402Z,52.80
2018-11-13T23:43:12.886Z,52.80
2018-11-13T23:45:40.297Z,52.80
2018-11-13T23:48:07.713Z,52.80
2018-11-13T23:50:35.122Z,52.70
2018-11-13T23:53:02.534Z,52.90
2018-11-13T23:55:29.963Z,52.70
2018-11-13T23:57:57.350Z,52.70
